Latest Weather Observations for Flinders Island Airport

IDT60801

Issued at 4:31 am EST Monday 24 July 2017 (issued every 30 minutes, with the page automatically refreshed every 10 minutes)

About weather observations | Map of weather stations | Latest weather observations for TAS | Other Formats
Station Details ID: 099005 Name: FLINDERS ISLAND AIRPORT Lat: -40.09 Lon: 148.00 Height: 9.0 m
Data from the previous 72 hours. | See also: Recent months at Flinders Island Airport
Date/Time
EST
Temp
°C
App
Temp
°C
Dew
Point
°C
Rel
Hum
%
Delta-T
°C
Wind Press
QNH
hPa
Press
MSL
hPa
Rain since
9am
mm
Dir  Spd
km/h
Gust
km/h
Spd
kts
Gust
kts
24/04:30am 8.8 -1.8 3.0 67 2.5 WSW 48 57 26 31 1012.4 1012.5 1.4
24/04:00am 9.0 -1.6 3.0 66 2.6 W 48 59 26 32 1012.3 1012.4 1.4
24/03:30am 9.1 -1.4 3.7 69 2.3 WSW 48 57 26 31 1012.0 1012.1 1.4
24/03:00am 9.1 -1.5 3.3 67 2.5 WSW 48 57 26 31 1011.8 1011.9 1.4
24/02:30am 9.0 -1.5 3.4 68 2.4 WSW 48 57 26 31 1011.9 1012.0 1.4
24/02:00am 9.2 -1.4 3.0 65 2.7 WSW 48 61 26 33 1011.8 1011.9 1.4
24/01:30am 9.3 -1.8 2.4 62 2.9 WSW 50 57 27 31 1011.7 1011.8 1.4
24/01:00am 9.4 -1.1 3.4 66 2.6 W 48 59 26 32 1011.5 1011.6 1.4
24/12:30am 10.0 -0.9 3.7 65 2.8 W 50 59 27 32 1011.4 1011.5 1.4
24/12:00am 10.1 0.2 4.7 69 2.4 W 46 56 25 30 1011.1 1011.2 1.4
 
Date/Time
EST
Temp
°C
App
Temp
°C
Dew
Point
°C
Rel
Hum
%
Delta-T
°C
Wind Press
QNH
hPa
Press
MSL
hPa
Rain since
9am
mm
Dir  Spd
km/h
Gust
km/h
Spd
kts
Gust
kts
23/11:30pm 10.5 0.4 5.7 72 2.2 WSW 48 57 26 31 1010.9 1011.0 1.4
23/11:00pm 10.7 0.6 5.9 72 2.2 WSW 48 57 26 31 1010.6 1010.7 1.4
23/10:30pm 10.9 2.1 7.2 78 1.8 WSW 43 52 23 28 1010.4 1010.5 1.4
23/10:00pm 11.2 1.9 7.7 79 1.7 W 46 54 25 29 1009.7 1009.8 1.4
23/09:30pm 11.3 2.7 8.2 81 1.5 W 43 54 23 29 1009.2 1009.3 1.4
23/09:00pm 11.4 2.5 7.7 78 1.8 W 44 54 24 29 1008.7 1008.8 1.4
23/08:30pm 11.5 3.1 8.9 84 1.3 W 43 52 23 28 1008.3 1008.4 1.4
23/08:00pm 11.6 2.7 9.2 85 1.2 W 46 56 25 30 1007.8 1007.8 1.4
23/07:30pm 11.7 3.0 8.4 80 1.6 W 44 56 24 30 1007.4 1007.4 1.4
23/07:00pm 11.8 1.9 8.3 79 1.7 W 50 61 27 33 1006.8 1006.8 1.4
23/06:30pm 11.8 1.5 8.3 79 1.7 W 52 63 28 34 1006.3 1006.3 1.4
23/06:00pm 11.7 3.0 8.6 81 1.5 W 44 65 24 35 1005.9 1005.9 1.4
23/05:57pm 11.8 3.3 8.6 81 1.6 W 43 63 23 34 1005.9 1005.9 1.4
23/05:30pm 12.0 2.8 8.1 77 1.9 W 46 59 25 32 1005.7 1005.7 1.4
23/05:01pm 11.8 4.1 8.5 80 1.6 W 39 57 21 31 1005.3 1005.3 1.4
23/05:00pm 11.8 3.7 8.5 80 1.6 W 41 57 22 31 1005.3 1005.3 1.4
23/04:43pm 11.6 3.1 8.6 82 1.5 WNW 43 57 23 31 1004.8 1004.8 1.4
23/04:38pm 11.5 4.0 9.4 87 1.1 WNW 39 57 21 31 1004.8 1004.8 1.4
23/04:30pm 11.2 3.0 9.8 91 0.7 W 43 59 23 32 1004.9 1004.9 1.4
23/04:26pm 11.4 3.0 9.8 90 0.8 W 44 59 24 32 1004.9 1004.9 1.4
23/04:00pm 11.9 2.5 10.1 89 0.9 W 50 72 27 39 1004.7 1004.7 1.2
23/03:50pm 12.0 3.2 9.4 84 1.3 WNW 46 65 25 35 1004.6 1004.6 1.2
23/03:39pm 12.1 3.3 9.7 85 1.2 WNW 46 59 25 32 1004.6 1004.6 1.2
23/03:30pm 11.9 2.3 9.6 86 1.2 W 50 69 27 37 1004.6 1004.6 1.2
23/03:20pm 11.6 3.5 9.9 89 0.9 WNW 43 70 23 38 1004.6 1004.6 1.0
23/03:08pm 12.2 3.5 9.8 85 1.2 WNW 46 69 25 37 1004.5 1004.5 0.6
23/03:00pm 12.2 4.6 10.4 89 0.9 W 41 69 22 37 1004.4 1004.4 0.6
23/02:51pm 12.0 4.2 9.7 86 1.2 WNW 41 56 22 30 1004.4 1004.4 0.4
23/02:30pm 13.2 5.2 8.9 75 2.2 WNW 41 65 22 35 1004.3 1004.3 0.2
23/02:27pm 12.9 5.2 8.6 75 2.1 WNW 39 65 21 35 1004.2 1004.2 0.2
23/02:00pm 12.8 4.4 9.8 82 1.5 W 44 59 24 32 1004.3 1004.3 0.2
23/01:38pm 13.3 5.2 8.8 74 2.3 WNW 41 59 22 32 1004.2 1004.2 0.0
23/01:30pm 13.7 4.6 8.5 71 2.6 WNW 46 59 25 32 1004.3 1004.3 0.0
23/01:01pm 13.7 5.2 9.2 74 2.3 WNW 44 63 24 34 1004.5 1004.5 0.0
23/01:00pm 13.5 5.1 8.8 73 2.4 WNW 43 56 23 30 1004.5 1004.5 0.0
23/12:43pm 12.7 5.7 9.9 83 1.4 WNW 37 52 20 28 1004.8 1004.8 0.0
23/12:30pm 10.9 1.6 9.3 90 0.8 W 48 72 26 39 1004.8 1004.8 0.0
23/12:26pm 10.5 1.4 8.4 87 1.0 W 46 72 25 39 1004.9 1004.9 0.0
23/12:25pm 10.6 1.8 8.2 85 1.2 W 44 72 24 39 1004.9 1004.9 0.0
23/12:24pm 10.8 2.1 7.9 82 1.4 WNW 43 72 23 39 1005.0 1005.0 0.0
23/12:22pm 13.2 5.8 9.8 80 1.7 WNW 39 69 21 37 1004.7 1004.7 0.0
23/12:00pm 13.2 5.7 9.3 77 2.0 WNW 39 54 21 29 1005.1 1005.1 0.0
23/11:36am 13.8 5.9 9.3 74 2.3 WNW 41 59 22 32 1005.5 1005.5 0.0
23/11:30am 13.5 5.6 9.2 75 2.2 WNW 41 56 22 30 1005.4 1005.4 0.0
23/11:00am 12.8 3.9 9.1 78 1.9 WNW 46 69 25 37 1005.7 1005.7 0.0
23/10:41am 13.6 6.0 9.1 74 2.3 WNW 39 57 21 31 1005.7 1005.7 0.0
23/10:30am 13.6 6.1 9.3 75 2.2 WNW 39 54 21 29 1005.9 1005.9 0.0
23/10:00am 12.9 5.3 9.0 77 2.0 NW 39 63 21 34 1005.9 1005.9 0.0
23/09:30am 13.2 5.0 8.3 72 2.4 WNW 41 61 22 33 1005.9 1005.9 0.0
23/09:02am 13.1 5.0 8.6 74 2.2 WNW 41 59 22 32 1005.8 1005.8 0.0
23/09:00am 13.1 4.6 8.4 73 2.3 WNW 43 59 23 32 1005.8 1005.8 0.0
23/08:32am 13.0 5.1 7.9 71 2.5 WNW 39 57 21 31 1005.9 1005.9 0.0
23/08:30am 12.9 4.7 8.0 72 2.4 NW 41 57 22 31 1005.9 1005.9 0.0
23/08:00am 12.9 4.6 7.6 70 2.6 NW 41 59 22 32 1005.8 1005.8 0.0
23/07:58am 12.9 4.6 7.8 71 2.5 WNW 41 59 22 32 1005.7 1005.7 0.0
23/07:30am 12.9 4.8 7.1 68 2.8 NW 39 54 21 29 1005.7 1005.7 0.0
23/07:10am 13.1 4.6 6.9 66 3.0 NW 41 59 22 32 1005.8 1005.8 0.0
23/07:00am 13.3 5.1 6.6 64 3.2 NW 39 54 21 29 1005.8 1005.8 0.0
23/06:30am 13.4 6.5 6.3 62 3.4 NW 32 41 17 22 1006.0 1006.0 0.0
23/06:00am 13.3 5.3 5.9 61 3.5 NW 37 50 20 27 1005.9 1005.9 0.0
23/05:30am 13.6 5.9 5.3 57 3.9 NW 35 50 19 27 1006.0 1006.0 0.0
23/05:00am 13.5 4.4 5.7 59 3.7 NW 43 56 23 30 1005.9 1005.9 0.0
23/04:49am 13.5 5.4 5.4 58 3.8 NW 37 59 20 32 1005.8 1005.8 0.0
23/04:30am 13.2 5.3 6.1 62 3.4 NW 37 52 20 28 1005.9 1005.9 0.0
23/04:14am 13.3 4.4 5.2 58 3.8 NW 41 59 22 32 1006.0 1006.0 0.0
23/04:00am 13.2 4.4 5.4 59 3.7 NW 41 57 22 31 1006.2 1006.2 0.0
23/03:30am 13.1 5.0 5.3 59 3.6 NNW 37 57 20 31 1006.5 1006.5 0.0
23/03:24am 13.0 4.2 5.4 60 3.5 NNW 41 59 22 32 1006.4 1006.4 0.0
23/03:00am 13.3 4.8 5.2 58 3.8 NW 39 54 21 29 1006.6 1006.6 0.0
23/02:30am 13.2 6.2 6.1 62 3.4 NW 32 50 17 27 1007.1 1007.1 0.0
23/02:00am 12.9 6.0 6.5 65 3.1 NW 32 50 17 27 1007.5 1007.5 0.0
23/01:57am 13.0 6.1 6.6 65 3.1 NW 32 50 17 27 1007.6 1007.6 0.0
23/01:30am 13.0 5.5 6.4 64 3.1 NW 35 48 19 26 1007.8 1007.8 0.0
23/01:00am 12.9 5.4 6.5 65 3.1 NW 35 48 19 26 1008.4 1008.5 0.0
23/12:30am 12.8 5.7 6.4 65 3.0 NW 33 44 18 24 1008.8 1008.9 0.0
23/12:00am 12.9 5.4 6.5 65 3.1 NW 35 50 19 27 1009.1 1009.2 0.0
 
Date/Time
EST
Temp
°C
App
Temp
°C
Dew
Point
°C
Rel
Hum
%
Delta-T
°C
Wind Press
QNH
hPa
Press
MSL
hPa
Rain since
9am
mm
Dir  Spd
km/h
Gust
km/h
Spd
kts
Gust
kts
22/11:30pm 12.6 5.5 6.4 66 2.9 NW 33 43 18 23 1009.4 1009.5 0.0
22/11:08pm 12.5 6.3 6.1 65 3.0 NW 28 46 15 25 1009.7 1009.8 0.0
22/11:00pm 12.2 7.6 6.5 68 2.7 NW 20 30 11 16 1009.9 1010.0 0.0
22/10:30pm 12.1 7.2 6.8 70 2.5 NNW 22 30 12 16 1010.2 1010.3 0.0
22/10:00pm 12.3 7.0 6.8 69 2.6 NNW 24 33 13 18 1010.5 1010.6 0.0
22/09:30pm 12.3 7.7 6.6 68 2.7 NNW 20 33 11 18 1010.6 1010.7 0.0
22/09:00pm 12.2 7.7 6.3 67 2.8 NNW 19 26 10 14 1010.7 1010.8 0.0
22/08:30pm 12.2 8.1 6.0 66 2.9 NNW 17 28 9 15 1010.8 1010.9 0.0
22/08:00pm 12.2 8.1 6.3 67 2.8 NNW 17 30 9 16 1011.1 1011.2 0.0
22/07:30pm 12.2 7.7 6.0 66 2.9 NNW 19 28 10 15 1011.3 1011.4 0.0
22/07:00pm 12.4 7.6 5.6 63 3.2 NNW 20 30 11 16 1011.3 1011.4 0.0
22/06:30pm 11.9 7.5 4.9 62 3.2 NNW 17 26 9 14 1011.4 1011.5 0.0
22/06:00pm 11.3 7.7 5.0 65 2.9 NNW 13 19 7 10 1011.6 1011.7 0.0
22/05:30pm 11.4 7.4 4.8 64 3.0 NNW 15 22 8 12 1011.6 1011.7 0.0
22/05:00pm 11.2 7.2 5.1 66 2.8 NNW 15 22 8 12 1011.7 1011.8 0.0
22/04:30pm 11.4 7.9 5.3 66 2.8 NNW 13 20 7 11 1011.9 1012.0 0.0
22/04:00pm 11.4 7.6 5.7 68 2.6 NNW 15 19 8 10 1012.2 1012.3 0.0
22/03:30pm 11.9 8.0 5.3 64 3.0 NNW 15 22 8 12 1012.4 1012.5 0.0
22/03:00pm 12.1 7.3 5.5 64 3.1 NW 20 30 11 16 1012.5 1012.6 0.0
22/02:30pm 12.6 8.3 5.3 61 3.4 NW 17 24 9 13 1012.8 1012.9 0.0
22/02:00pm 12.5 6.1 5.2 61 3.4 NW 28 37 15 20 1013.5 1013.6 0.0
22/01:30pm 12.7 6.0 5.4 61 3.4 NW 30 37 16 20 1013.7 1013.8 0.0
22/01:00pm 13.2 6.5 5.6 60 3.6 NW 30 37 16 20 1014.5 1014.6 0.0
22/12:30pm 12.7 5.8 4.7 58 3.7 WNW 30 43 16 23 1015.2 1015.3 0.0
22/12:00pm 12.6 5.7 4.8 59 3.6 NW 30 41 16 22 1016.0 1016.1 0.0
22/11:30am 12.8 5.8 4.3 56 3.9 NW 30 39 16 21 1016.4 1016.5 0.0
22/11:00am 12.3 5.3 4.3 58 3.6 NW 30 41 16 22 1016.8 1016.9 0.0
22/10:30am 12.1 5.5 4.3 59 3.5 NW 28 37 15 20 1017.3 1017.4 0.0
22/10:00am 11.9 5.3 4.4 60 3.4 NW 28 35 15 19 1017.5 1017.6 0.0
22/09:30am 11.3 4.7 4.3 62 3.1 WNW 28 37 15 20 1017.7 1017.8 0.0
22/09:00am 10.6 4.1 4.7 67 2.6 WNW 28 39 15 21 1017.8 1017.9 0.0
22/08:30am 10.3 4.2 4.9 69 2.4 WNW 26 41 14 22 1018.0 1018.0 0.0
22/08:00am 10.1 4.0 4.9 70 2.3 WNW 26 33 14 18 1018.2 1018.2 0.0
22/07:30am 9.6 3.5 4.8 72 2.1 WNW 26 37 14 20 1018.2 1018.2 0.0
22/07:00am 9.5 2.7 5.1 74 2.0 WNW 30 39 16 21 1018.1 1018.1 0.0
22/06:55am 9.2 2.8 5.2 76 1.8 WNW 28 39 15 21 1018.2 1018.2 0.0
22/06:30am 8.7 5.4 6.2 84 1.1 NW 13 15 7 8 1018.0 1018.0 0.0
22/06:00am 8.5 5.9 6.3 86 1.0 NNW 9 13 5 7 1017.8 1017.9 0.0
22/05:30am 8.4 5.4 5.9 84 1.1 N 11 15 6 8 1017.7 1017.8 0.0
22/05:00am 8.4 5.4 5.9 84 1.1 NNW 11 15 6 8 1018.1 1018.1 0.0
22/04:30am 9.1 6.3 6.9 86 1.0 NNW 11 15 6 8 1018.4 1018.4 0.0
22/04:00am 8.4 6.0 7.0 91 0.7 N 9 13 5 7 1018.5 1018.5 0.0
22/03:30am 7.8 5.4 7.2 96 0.3 NNW 9 13 5 7 1018.8 1018.8 0.0
22/03:00am 6.6 3.7 6.5 99 0.0 NNW 11 17 6 9 1019.3 1019.3 0.0
22/02:30am 2.9 0.0 2.8 99 0.0 NNW 7 9 4 5 1019.8 1019.8 0.0
22/02:00am 2.9 -0.3 2.8 99 0.0 NNE 9 9 5 5 1019.9 1019.9 0.0
22/01:30am 2.6 -0.7 2.5 99 0.0 NNE 9 11 5 6 1020.1 1020.1 0.0
22/01:00am 1.8 -1.6 1.7 99 0.0 NE 9 11 5 6 1020.3 1020.3 0.0
22/12:30am 1.8 -1.6 1.7 99 0.0 NE 9 11 5 6 1020.8 1020.8 0.0
22/12:00am 1.9 -1.9 1.8 99 0.0 ENE 11 11 6 6 1021.2 1021.2 0.0
 
Date/Time
EST
Temp
°C
App
Temp
°C
Dew
Point
°C
Rel
Hum
%
Delta-T
°C
Wind Press
QNH
hPa
Press
MSL
hPa
Rain since
9am
mm
Dir  Spd
km/h
Gust
km/h
Spd
kts
Gust
kts
21/11:30pm 2.0 -1.8 1.9 99 0.0 ENE 11 13 6 7 1021.4 1021.4 0.0
21/11:00pm 2.3 -1.8 2.2 99 0.0 ENE 13 13 7 7 1021.4 1021.4 0.0
21/10:30pm 2.4 -0.9 2.3 99 0.0 NE 9 11 5 6 1021.6 1021.6 0.0
21/10:00pm 2.2 -1.2 1.9 98 0.1 ENE 9 11 5 6 1021.6 1021.6 0.0
21/09:30pm 2.4 -1.3 2.1 98 0.1 NE 11 13 6 7 1021.7 1021.7 0.0
21/09:00pm 2.7 -1.4 2.4 98 0.1 ENE 13 17 7 9 1021.6 1021.6 0.0
21/08:30pm 3.1 -0.5 2.7 97 0.2 ENE 11 13 6 7 1021.7 1021.7 0.0
21/08:00pm 2.7 -1.0 2.1 96 0.2 ENE 11 13 6 7 1021.4 1021.4 0.0
21/07:30pm 3.8 -0.2 2.9 94 0.4 ENE 13 17 7 9 1021.5 1021.5 0.0
21/07:00pm 4.7 1.5 3.0 89 0.7 N 9 11 5 6 1021.8 1021.8 0.0
21/06:30pm 8.1 4.1 5.0 81 1.4 WNW 15 19 8 10 1021.9 1021.9 0.0
21/06:00pm 9.4 5.2 5.8 78 1.6 W 17 22 9 12 1021.9 1021.9 0.0
21/05:30pm 9.8 5.7 6.2 78 1.7 W 17 24 9 13 1021.7 1021.7 0.0
21/05:00pm 9.6 7.4 6.3 80 1.5 NW 7 7 4 4 1021.6 1021.6 0.0
21/04:30pm 11.1 8.5 6.3 72 2.2 WNW 9 11 5 6 1021.4 1021.4 0.0
21/04:00pm 11.7 8.7 6.0 68 2.7 WSW 11 13 6 7 1021.3 1021.3 0.0
21/03:30pm 11.8 8.7 5.4 65 3.0 W 11 13 6 7 1021.3 1021.3 0.0
21/03:00pm 11.9 8.3 5.1 63 3.1 WSW 13 15 7 8 1021.4 1021.4 0.0
21/02:30pm 12.1 8.1 5.0 62 3.3 WSW 15 17 8 9 1021.6 1021.6 0.0
21/02:00pm 12.3 8.4 5.5 63 3.1 WSW 15 19 8 10 1021.9 1021.9 0.0
21/01:30pm 12.2 8.6 4.9 61 3.3 WSW 13 15 7 8 1022.0 1022.0 0.0
21/01:00pm 12.1 8.0 4.3 59 3.5 WSW 15 19 8 10 1022.2 1022.2 0.0
21/12:30pm 12.3 8.2 6.4 67 2.8 WSW 17 19 9 10 1022.4 1022.4 0.0
21/12:00pm 12.0 8.2 5.6 65 3.0 WSW 15 17 8 9 1022.6 1022.6 0.0
21/11:30am 11.7 9.0 5.6 66 2.8 WSW 9 11 5 6 1023.2 1023.2 0.0
21/11:00am 11.3 8.6 5.4 67 2.7 W 9 11 5 6 1023.3 1023.3 0.0
21/10:30am 10.9 8.4 4.8 66 2.8 W 7 7 4 4 1023.4 1023.4 0.0
21/10:00am 11.2 10.4 6.5 73 2.2 CALM 0 0 0 0 1023.4 1023.4 0.0
21/09:30am 8.0 5.4 6.3 89 0.8 ENE 9 9 5 5 1023.1 1023.1 0.0
21/09:00am 5.3 2.1 5.0 98 0.1 ENE 11 13 6 7 1022.9 1022.9 0.0
21/08:30am 2.4 -1.3 2.3 99 0.0 ENE 11 11 6 6 1022.8 1022.8 0.0
21/08:00am 1.0 -2.9 0.9 99 0.0 ENE 11 13 6 7 1022.5 1022.5 0.0
21/07:30am 0.2 -3.9 -0.1 98 0.1 ENE 11 13 6 7 1022.1 1022.1 0.0
21/07:00am 0.1 -4.0 -0.2 98 0.1 ENE 11 13 6 7 1021.9 1021.9 0.0
21/06:30am 0.5 -3.6 0.1 97 0.1 ENE 11 13 6 7 1021.8 1021.8 0.0
21/06:00am 0.8 -2.8 0.4 97 0.1 ENE 9 13 5 7 1021.7 1021.7 0.0
21/05:30am 1.0 -3.0 0.4 96 0.2 ENE 11 15 6 8 1021.3 1021.3 0.0
21/05:00am 0.7 -3.0 0.0 95 0.3 E 9 15 5 8 1021.1 1021.1 0.0

Other Formats:

Comma delimited format used in spreadsheet applications
http://www.bom.gov.au/fwo/IDT60801/IDT60801.94980.axf

JavaScript Object Notation format (JSON) in row-major order
http://www.bom.gov.au/fwo/IDT60801/IDT60801.94980.json